Time;durP1;ratioP1;P1;durP2;ratioP2;P2;SDS_P1;SDS_P2;PMS_P1;PMS_P2;Temp;Humidity;BMP_temperature;BMP_pressure;BME280_temperature;BME280_humidity;BME280_pressure;Samples;Min_cycle;Max_cycle;Signal;HPM_P1;HPM_P2
2023/09/19 00:01:07;;;;;;;12.77;11.30;;;19.90;99.90;;;;;;5012269;28;20218;-72
2023/09/19 00:03:58;;;;;;;14.65;12.10;;;19.80;99.90;;;;;;5015746;27;20241;-72
2023/09/19 00:06:47;;;;;;;15.27;12.43;;;19.80;99.90;;;;;;5010540;28;20316;-72
2023/09/19 00:09:37;;;;;;;13.32;11.93;;;19.90;99.90;;;;;;5006248;28;20222;-70
2023/09/19 00:12:26;;;;;;;17.60;12.00;;;19.80;99.90;;;;;;5019413;27;20218;-71
2023/09/19 00:15:17;;;;;;;15.95;12.30;;;19.90;99.90;;;;;;5003899;28;20230;-71
2023/09/19 00:18:08;;;;;;;14.43;12.40;;;19.80;99.90;;;;;;5020580;27;20229;-72
2023/09/19 00:21:00;;;;;;;16.48;12.45;;;19.70;99.90;;;;;;5020235;27;20368;-70
2023/09/19 00:23:51;;;;;;;15.10;12.25;;;19.80;99.90;;;;;;5011668;28;20289;-70
2023/09/19 00:26:40;;;;;;;13.48;12.02;;;19.70;99.90;;;;;;4998097;28;20348;-71
2023/09/19 00:29:31;;;;;;;15.45;11.90;;;19.70;99.90;;;;;;5038076;27;20712;-71
2023/09/19 00:32:21;;;;;;;16.63;12.15;;;19.70;99.90;;;;;;5085530;27;20282;-70
2023/09/19 00:35:10;;;;;;;15.30;12.25;;;19.70;99.90;;;;;;5001539;28;20232;-70
2023/09/19 00:38:01;;;;;;;13.65;12.23;;;19.70;99.90;;;;;;5001939;27;21268;-71
2023/09/19 00:40:52;;;;;;;14.65;12.90;;;19.60;99.90;;;;;;5085237;27;20685;-68
2023/09/19 00:43:41;;;;;;;15.95;12.38;;;19.60;99.90;;;;;;4999225;28;20312;-71
2023/09/19 00:46:33;;;;;;;14.02;12.60;;;19.50;99.90;;;;;;5006119;27;20226;-72
2023/09/19 00:49:22;;;;;;;14.82;12.77;;;19.50;99.90;;;;;;5019579;27;20222;-70
2023/09/19 00:52:13;;;;;;;13.57;12.18;;;19.60;99.90;;;;;;5010765;28;20402;-68
2023/09/19 00:55:04;;;;;;;14.45;12.30;;;19.60;99.90;;;;;;5001124;28;20251;-71
2023/09/19 00:57:56;;;;;;;16.25;12.63;;;19.60;99.90;;;;;;5019298;27;20608;-71
2023/09/19 01:00:49;;;;;;;14.85;12.38;;;19.60;99.90;;;;;;5011960;28;20689;-70
2023/09/19 01:03:39;;;;;;;15.30;12.95;;;19.60;99.90;;;;;;5007066;27;20567;-70
2023/09/19 01:06:29;;;;;;;15.82;12.43;;;19.60;99.90;;;;;;5022929;27;20580;-69
2023/09/19 01:09:19;;;;;;;15.05;12.70;;;19.50;99.90;;;;;;5086630;27;20251;-70
2023/09/19 01:12:13;;;;;;;15.75;12.52;;;19.50;99.90;;;;;;5000098;28;20613;-72
2023/09/19 01:15:11;;;;;;;15.90;12.20;;;19.50;99.90;;;;;;4994501;28;20225;-70
2023/09/19 01:18:10;;;;;;;15.18;12.73;;;19.50;99.90;;;;;;4987808;28;20229;-70
2023/09/19 01:21:09;;;;;;;16.77;12.50;;;19.50;99.90;;;;;;5038608;27;20555;-69
2023/09/19 01:24:23;;;;;;;15.57;12.63;;;19.40;99.90;;;;;;4996959;28;20233;-69
2023/09/19 01:27:34;;;;;;;14.18;12.68;;;19.50;99.90;;;;;;5019137;27;20214;-71
2023/09/19 01:30:29;;;;;;;15.27;12.35;;;19.40;99.90;;;;;;5001383;28;20230;-70
2023/09/19 01:33:19;;;;;;;15.68;12.77;;;19.40;99.90;;;;;;5020600;27;20305;-70
2023/09/19 01:36:09;;;;;;;19.77;13.18;;;19.50;99.90;;;;;;5027789;27;20787;-71
2023/09/19 01:39:05;;;;;;;15.05;12.75;;;19.50;99.90;;;;;;5021335;27;20234;-70
2023/09/19 01:42:05;;;;;;;16.58;13.40;;;19.60;99.90;;;;;;5041051;27;20221;-70
2023/09/19 01:45:04;;;;;;;18.27;13.10;;;19.50;99.90;;;;;;4997204;28;20303;-70
2023/09/19 01:47:56;;;;;;;14.65;12.70;;;19.50;99.90;;;;;;5014021;28;20233;-71
2023/09/19 01:50:53;;;;;;;14.77;12.27;;;19.50;99.90;;;;;;5001627;28;20363;-71
2023/09/19 01:53:51;;;;;;;17.17;13.10;;;19.40;99.90;;;;;;5024812;27;20570;-68
2023/09/19 01:56:48;;;;;;;15.70;12.93;;;19.50;99.90;;;;;;5017982;28;20220;-70
2023/09/19 01:59:46;;;;;;;16.92;12.50;;;19.50;99.90;;;;;;5012168;27;20417;-69
2023/09/19 02:02:38;;;;;;;14.43;12.38;;;19.40;99.90;;;;;;5025260;27;20244;-70
2023/09/19 02:05:28;;;;;;;18.75;12.95;;;19.50;99.90;;;;;;5033972;27;20877;-72
2023/09/19 02:08:19;;;;;;;15.85;12.98;;;19.50;99.90;;;;;;5008350;28;20222;-71
2023/09/19 02:11:08;;;;;;;16.30;12.38;;;19.50;99.90;;;;;;5087290;27;20237;-72
2023/09/19 02:13:57;;;;;;;17.48;12.60;;;19.40;99.90;;;;;;5089432;27;20225;-70
2023/09/19 02:16:47;;;;;;;16.05;12.70;;;19.40;99.90;;;;;;5015332;28;20364;-71
2023/09/19 02:19:38;;;;;;;14.50;12.55;;;19.50;99.90;;;;;;5090339;27;20234;-71
2023/09/19 02:22:32;;;;;;;15.52;12.98;;;19.40;99.90;;;;;;5053091;27;20214;-72
2023/09/19 02:25:21;;;;;;;15.55;12.38;;;19.40;99.90;;;;;;5005420;28;20775;-71
2023/09/19 02:28:11;;;;;;;14.43;12.93;;;19.30;99.90;;;;;;5043142;27;20375;-72
2023/09/19 02:31:00;;;;;;;14.52;12.65;;;19.30;99.90;;;;;;5030930;28;20251;-70
2023/09/19 02:33:49;;;;;;;15.35;12.80;;;19.30;99.90;;;;;;4998110;28;20229;-71
2023/09/19 02:36:38;;;;;;;16.00;13.07;;;19.30;99.90;;;;;;4996340;28;20225;-70
2023/09/19 02:39:28;;;;;;;16.27;13.07;;;19.30;99.90;;;;;;5006757;28;20233;-73
2023/09/19 02:42:17;;;;;;;16.10;12.70;;;19.20;99.90;;;;;;5018862;27;20222;-70
2023/09/19 02:45:08;;;;;;;15.55;12.45;;;19.20;99.90;;;;;;5007845;27;20233;-70
2023/09/19 02:47:57;;;;;;;15.50;13.05;;;19.20;99.90;;;;;;5000295;28;20570;-70
2023/09/19 02:50:47;;;;;;;15.77;13.52;;;19.20;99.90;;;;;;5007912;28;20233;-70
2023/09/19 02:53:36;;;;;;;15.77;12.70;;;19.20;99.90;;;;;;5024026;28;20234;-69
2023/09/19 02:56:28;;;;;;;16.42;13.23;;;19.10;99.90;;;;;;5071922;28;20664;-71
2023/09/19 02:59:17;;;;;;;15.35;12.68;;;19.20;99.90;;;;;;5011455;28;20228;-69
2023/09/19 03:02:10;;;;;;;14.48;12.68;;;19.10;99.90;;;;;;5014154;28;20239;-70
2023/09/19 03:05:00;;;;;;;18.23;13.82;;;19.10;99.90;;;;;;5013550;27;20316;-70
2023/09/19 03:07:50;;;;;;;17.40;13.15;;;19.00;99.90;;;;;;5003970;28;20232;-72
2023/09/19 03:10:41;;;;;;;14.82;13.05;;;19.00;99.90;;;;;;5000721;28;20240;-70
2023/09/19 03:13:31;;;;;;;14.73;12.95;;;19.10;99.90;;;;;;5017035;28;20641;-71
2023/09/19 03:16:21;;;;;;;14.52;12.85;;;19.00;99.90;;;;;;5085383;27;20226;-71
2023/09/19 03:19:15;;;;;;;15.68;13.98;;;19.00;99.90;;;;;;4997392;28;20704;-71
2023/09/19 03:22:05;;;;;;;17.67;13.43;;;19.00;99.90;;;;;;5077948;27;20226;-73
2023/09/19 03:24:54;;;;;;;17.27;13.20;;;19.00;99.90;;;;;;5007310;28;20232;-72
2023/09/19 03:27:43;;;;;;;16.13;13.45;;;19.00;99.90;;;;;;5000450;28;20225;-70
2023/09/19 03:30:35;;;;;;;16.95;13.30;;;19.00;99.90;;;;;;4997845;28;20213;-69
2023/09/19 03:33:25;;;;;;;15.23;13.63;;;18.90;99.90;;;;;;5094021;27;20315;-70
2023/09/19 03:36:15;;;;;;;16.77;13.85;;;18.90;99.90;;;;;;4994641;28;20631;-71
2023/09/19 03:39:05;;;;;;;21.40;13.32;;;18.90;99.90;;;;;;5012688;27;20539;-69
2023/09/19 03:41:54;;;;;;;15.25;12.65;;;18.90;99.90;;;;;;5029249;27;20306;-71
2023/09/19 03:44:43;;;;;;;15.65;14.10;;;19.00;99.90;;;;;;5001078;28;20217;-71
2023/09/19 03:47:34;;;;;;;15.85;13.32;;;19.00;99.90;;;;;;5005896;28;20218;-71
2023/09/19 03:50:24;;;;;;;14.90;12.98;;;19.00;99.90;;;;;;4995648;28;20316;-71
2023/09/19 03:53:14;;;;;;;15.73;13.27;;;19.00;99.90;;;;;;5084854;27;20225;-70
2023/09/19 03:56:03;;;;;;;15.85;13.85;;;18.90;99.90;;;;;;5084065;27;20241;-71
2023/09/19 03:58:54;;;;;;;15.10;12.82;;;18.90;99.90;;;;;;5034619;28;20257;-72
2023/09/19 04:01:43;;;;;;;14.30;12.68;;;18.90;99.90;;;;;;5093638;27;20309;-72
2023/09/19 04:04:34;;;;;;;22.40;13.45;;;18.90;99.90;;;;;;5047741;27;20225;-73
2023/09/19 04:07:23;;;;;;;15.27;13.13;;;18.80;99.90;;;;;;5009640;28;20644;-72
2023/09/19 04:10:13;;;;;;;17.10;13.35;;;18.90;99.90;;;;;;5094102;27;20253;-71
2023/09/19 04:13:03;;;;;;;15.68;12.82;;;18.80;99.90;;;;;;5059127;27;20286;-72
2023/09/19 04:15:52;;;;;;;16.20;13.18;;;18.80;99.90;;;;;;5000119;28;20217;-72
2023/09/19 04:18:41;;;;;;;14.75;13.10;;;18.80;99.90;;;;;;4992859;28;20245;-72
2023/09/19 04:21:32;;;;;;;15.68;12.90;;;18.80;99.90;;;;;;5004777;27;20377;-72
2023/09/19 04:24:20;;;;;;;15.20;13.25;;;18.80;99.90;;;;;;5017198;28;20805;-72
2023/09/19 04:27:10;;;;;;;15.93;12.15;;;18.80;99.90;;;;;;5025249;28;20222;-72
2023/09/19 04:29:59;;;;;;;17.15;13.07;;;18.80;99.90;;;;;;5010871;28;20225;-72
2023/09/19 04:32:50;;;;;;;14.13;12.65;;;18.80;99.90;;;;;;5006190;28;20610;-72
2023/09/19 04:35:42;;;;;;;14.80;13.30;;;18.70;99.90;;;;;;5026228;27;20330;-72
2023/09/19 04:38:32;;;;;;;16.90;13.07;;;18.60;99.90;;;;;;5107562;27;20233;-74
2023/09/19 04:41:22;;;;;;;106.10;16.50;;;18.60;99.90;;;;;;5116847;27;20721;-73
2023/09/19 04:44:11;;;;;;;15.18;12.80;;;18.70;99.90;;;;;;5078930;27;20229;-71
2023/09/19 04:47:00;;;;;;;14.15;12.65;;;18.70;99.90;;;;;;5006215;27;20221;-72
2023/09/19 04:49:49;;;;;;;19.45;13.02;;;18.70;99.90;;;;;;5010858;28;20291;-73
2023/09/19 04:52:39;;;;;;;15.57;12.35;;;18.80;99.90;;;;;;5011813;28;20235;-73
2023/09/19 04:55:32;;;;;;;14.98;12.57;;;18.80;99.90;;;;;;5015576;27;20575;-73
2023/09/19 04:58:21;;;;;;;15.68;13.02;;;18.80;99.90;;;;;;5017095;28;20281;-74
2023/09/19 05:01:12;;;;;;;15.73;12.93;;;18.90;99.90;;;;;;5034419;27;20234;-73
2023/09/19 05:04:01;;;;;;;18.02;12.15;;;18.90;99.90;;;;;;5022066;27;20221;-71
2023/09/19 05:06:50;;;;;;;17.05;13.68;;;18.90;99.90;;;;;;5005283;28;20775;-71
2023/09/19 05:09:42;;;;;;;15.50;13.02;;;18.90;99.90;;;;;;5000065;28;20709;-72
2023/09/19 05:12:33;;;;;;;14.32;12.82;;;18.90;99.90;;;;;;5006060;28;20298;-71
2023/09/19 05:15:24;;;;;;;18.35;13.23;;;19.00;99.90;;;;;;5012841;28;20257;-73
2023/09/19 05:18:13;;;;;;;15.40;13.00;;;19.00;99.90;;;;;;5001123;28;20285;-71
2023/09/19 05:21:03;;;;;;;17.58;12.95;;;19.10;99.90;;;;;;5076697;27;20770;-72
2023/09/19 05:23:53;;;;;;;18.15;12.77;;;19.20;99.90;;;;;;5001959;28;20231;-71
2023/09/19 05:26:42;;;;;;;17.00;11.70;;;19.20;99.90;;;;;;5015241;27;20713;-71
2023/09/19 05:29:33;;;;;;;15.88;13.27;;;19.30;99.90;;;;;;5080830;27;20333;-71
2023/09/19 05:32:22;;;;;;;16.23;12.38;;;19.30;99.90;;;;;;5015252;28;20934;-73
2023/09/19 05:35:12;;;;;;;13.68;11.90;;;19.30;99.90;;;;;;4995886;28;20230;-73
2023/09/19 05:38:01;;;;;;;16.48;12.82;;;19.30;99.90;;;;;;5005045;27;20218;-70
2023/09/19 05:40:50;;;;;;;17.27;12.40;;;19.30;99.90;;;;;;5015451;28;20230;-71
2023/09/19 05:43:40;;;;;;;17.63;12.02;;;19.30;99.90;;;;;;5045519;27;20302;-71
2023/09/19 05:46:31;;;;;;;17.15;12.00;;;19.30;99.90;;;;;;5000893;27;20224;-73
2023/09/19 05:49:21;;;;;;;15.85;12.05;;;19.30;99.90;;;;;;5009423;27;20308;-71
2023/09/19 05:52:10;;;;;;;13.85;11.77;;;19.30;99.90;;;;;;5015497;27;20217;-71
2023/09/19 05:54:59;;;;;;;17.67;12.05;;;19.40;99.90;;;;;;5012888;28;20644;-72
2023/09/19 05:57:52;;;;;;;14.95;11.88;;;19.40;99.90;;;;;;5009717;28;21057;-72
2023/09/19 06:00:42;;;;;;;14.68;11.57;;;19.50;99.90;;;;;;4999973;28;20241;-71
2023/09/19 06:03:33;;;;;;;19.63;12.20;;;19.60;99.90;;;;;;5001907;28;20221;-72
2023/09/19 06:06:24;;;;;;;15.40;12.18;;;19.80;99.90;;;;;;5014441;27;21000;-72
2023/09/19 06:09:14;;;;;;;14.90;12.35;;;19.70;99.90;;;;;;4999236;28;20236;-73
2023/09/19 06:12:03;;;;;;;17.40;12.52;;;19.80;99.90;;;;;;5082506;27;20221;-75
2023/09/19 06:14:52;;;;;;;16.25;11.38;;;19.80;99.90;;;;;;5087511;27;20221;-71
2023/09/19 06:17:42;;;;;;;15.68;11.57;;;19.80;99.90;;;;;;5002896;28;20233;-72
2023/09/19 06:20:33;;;;;;;17.55;11.57;;;19.90;99.90;;;;;;5010326;28;20263;-75
2023/09/19 06:23:24;;;;;;;15.32;11.95;;;20.00;99.90;;;;;;5010752;28;20222;-72
2023/09/19 06:26:16;;;;;;;13.38;11.98;;;20.10;99.90;;;;;;5074769;27;20242;-74
2023/09/19 06:29:07;;;;;;;17.60;12.02;;;20.10;99.90;;;;;;5012596;28;20700;-73
2023/09/19 06:31:56;;;;;;;17.50;11.35;;;20.10;99.90;;;;;;5007601;28;20229;-73
2023/09/19 06:34:46;;;;;;;17.38;13.05;;;20.10;99.90;;;;;;5013155;28;20232;-72
2023/09/19 06:37:38;;;;;;;23.58;12.82;;;20.10;99.90;;;;;;5019325;27;20225;-73
2023/09/19 06:40:28;;;;;;;17.27;12.65;;;20.30;99.90;;;;;;5004951;28;20768;-74
2023/09/19 06:43:18;;;;;;;18.23;12.07;;;20.40;99.90;;;;;;5020032;28;20239;-69
2023/09/19 06:46:08;;;;;;;13.02;11.75;;;20.60;99.90;;;;;;5052153;27;20223;-73
2023/09/19 06:48:57;;;;;;;15.70;11.30;;;20.60;99.90;;;;;;4991759;28;20366;-71
2023/09/19 06:51:46;;;;;;;18.70;12.23;;;20.60;99.90;;;;;;5006686;28;20228;-71
2023/09/19 06:54:43;;;;;;;15.52;12.05;;;20.50;99.90;;;;;;5014657;28;21109;-74
2023/09/19 06:57:32;;;;;;;15.88;12.15;;;20.60;99.90;;;;;;5013530;28;20221;-73
2023/09/19 07:00:23;;;;;;;15.25;11.75;;;20.70;99.90;;;;;;5011378;28;20988;-73
2023/09/19 07:03:16;;;;;;;16.42;12.13;;;20.90;99.90;;;;;;5015136;27;21978;-72
2023/09/19 07:06:05;;;;;;;21.85;12.48;;;21.10;99.90;;;;;;5008806;28;20294;-74
2023/09/19 07:08:55;;;;;;;15.27;12.27;;;21.40;99.90;;;;;;5102273;27;20226;-73
2023/09/19 07:11:45;;;;;;;15.20;12.35;;;21.30;99.90;;;;;;5129175;27;20677;-73
2023/09/19 07:14:34;;;;;;;15.65;12.05;;;21.30;99.90;;;;;;5073429;27;20232;-74
2023/09/19 07:17:23;;;;;;;15.57;12.25;;;21.40;99.90;;;;;;5018449;28;20239;-72
2023/09/19 07:20:16;;;;;;;17.85;12.48;;;21.30;99.90;;;;;;5033575;28;20235;-73
2023/09/19 07:23:06;;;;;;;19.80;12.25;;;21.50;99.90;;;;;;5001664;28;20222;-72
2023/09/19 07:26:00;;;;;;;18.52;12.52;;;21.60;99.90;;;;;;5094888;27;20301;-74
2023/09/19 07:28:50;;;;;;;16.20;12.40;;;21.70;99.90;;;;;;5121485;27;20233;-71
2023/09/19 07:31:39;;;;;;;15.55;12.27;;;21.80;99.90;;;;;;5110824;27;20697;-70
2023/09/19 07:34:29;;;;;;;13.57;12.13;;;21.90;99.90;;;;;;5055953;27;20744;-73
2023/09/19 07:37:18;;;;;;;15.65;12.90;;;22.00;99.90;;;;;;5013569;28;20233;-75
2023/09/19 07:40:09;;;;;;;14.63;12.57;;;22.00;99.90;;;;;;5009769;28;21034;-73
2023/09/19 07:43:01;;;;;;;14.77;13.27;;;22.10;99.90;;;;;;5080949;27;20232;-71
2023/09/19 07:45:52;;;;;;;15.38;12.45;;;22.40;99.90;;;;;;5017957;28;20727;-73
2023/09/19 07:48:44;;;;;;;13.82;12.43;;;22.50;99.90;;;;;;4996678;28;20322;-74
2023/09/19 07:51:34;;;;;;;17.60;13.73;;;22.60;99.90;;;;;;4991575;28;20247;-75
2023/09/19 07:54:23;;;;;;;20.33;13.15;;;22.70;99.90;;;;;;5012259;28;20299;-73
2023/09/19 07:57:15;;;;;;;20.17;13.20;;;22.60;99.90;;;;;;5042041;27;20307;-75
2023/09/19 08:00:06;;;;;;;23.08;13.27;;;22.70;99.90;;;;;;5007988;28;20390;-73
2023/09/19 08:03:01;;;;;;;17.92;14.23;;;22.70;99.90;;;;;;5079507;27;20225;-72
2023/09/19 08:05:59;;;;;;;18.63;14.05;;;22.70;99.90;;;;;;5016644;27;20226;-73
2023/09/19 08:08:50;;;;;;;19.60;14.77;;;22.70;99.90;;;;;;5016459;28;20739;-72
2023/09/19 08:11:40;;;;;;;16.48;14.20;;;22.70;99.90;;;;;;4997089;28;20294;-72
2023/09/19 08:14:29;;;;;;;18.15;14.95;;;22.80;99.90;;;;;;4993664;28;20746;-75
2023/09/19 08:17:22;;;;;;;16.83;14.30;;;22.90;99.90;;;;;;5060913;27;20235;-75
2023/09/19 08:20:16;;;;;;;17.80;13.93;;;23.20;99.90;;;;;;5004915;28;20218;-74
2023/09/19 08:23:05;;;;;;;15.73;14.13;;;23.10;99.90;;;;;;4998193;27;20701;-75
2023/09/19 08:26:02;;;;;;;17.15;14.77;;;23.00;99.90;;;;;;5013611;28;20224;-75
2023/09/19 08:28:53;;;;;;;17.35;14.23;;;23.20;99.90;;;;;;5012862;28;20260;-73
2023/09/19 08:31:43;;;;;;;20.48;14.32;;;23.50;99.90;;;;;;5002239;28;20575;-74
2023/09/19 08:34:34;;;;;;;17.00;14.20;;;23.80;99.90;;;;;;5000708;28;20222;-74
2023/09/19 08:37:27;;;;;;;22.00;14.27;;;24.10;99.90;;;;;;5019940;27;20298;-73
2023/09/19 08:40:16;;;;;;;15.02;13.48;;;24.30;99.90;;;;;;5019012;27;20217;-74
2023/09/19 08:43:05;;;;;;;19.20;14.27;;;24.00;99.90;;;;;;5045594;27;20823;-74
2023/09/19 08:46:04;;;;;;;17.63;13.45;;;23.70;99.90;;;;;;5075931;27;20731;-72
2023/09/19 08:49:04;;;;;;;16.75;12.50;;;23.30;99.90;;;;;;5009067;28;20362;-73
2023/09/19 08:52:02;;;;;;;15.52;12.48;;;23.10;99.90;;;;;;5113756;27;20260;-73
2023/09/19 08:54:54;;;;;;;17.30;12.30;;;23.00;99.90;;;;;;5119255;27;20285;-72
2023/09/19 08:57:48;;;;;;;14.77;13.13;;;22.90;99.90;;;;;;5062375;27;20218;-73
2023/09/19 09:00:42;;;;;;;17.45;11.65;;;22.80;99.90;;;;;;5118655;27;20229;-73
2023/09/19 09:03:35;;;;;;;16.02;12.85;;;22.60;99.90;;;;;;5096500;27;20250;-73
2023/09/19 09:06:27;;;;;;;15.70;11.80;;;22.50;99.90;;;;;;5068260;27;20223;-73
2023/09/19 09:09:17;;;;;;;19.05;12.32;;;22.40;99.90;;;;;;5018238;28;20217;-73
2023/09/19 09:12:12;;;;;;;16.42;10.98;;;22.50;99.90;;;;;;5005092;27;20234;-73
2023/09/19 09:15:03;;;;;;;13.80;11.77;;;22.50;99.90;;;;;;5108349;27;20316;-72
2023/09/19 09:17:54;;;;;;;15.18;11.38;;;22.40;99.90;;;;;;5114230;27;20242;-73
2023/09/19 09:20:44;;;;;;;17.08;12.25;;;22.30;99.90;;;;;;5062529;27;20219;-74
2023/09/19 09:23:34;;;;;;;14.85;11.13;;;22.20;99.90;;;;;;4995126;28;20636;-74
2023/09/19 09:26:43;;;;;;;18.00;11.93;;;22.10;99.90;;;;;;4986170;28;20287;-75
2023/09/19 09:29:49;;;;;;;15.02;9.93;;;22.00;99.90;;;;;;5065814;27;20225;-73
2023/09/19 09:32:39;;;;;;;14.82;9.50;;;21.80;99.90;;;;;;5007475;28;20253;-73
2023/09/19 09:35:53;;;;;;;10.80;9.13;;;21.70;99.90;;;;;;4989513;28;20257;-74
2023/09/19 09:38:46;;;;;;;15.88;9.98;;;21.60;99.90;;;;;;4990607;28;20349;-73
2023/09/19 09:41:39;;;;;;;18.63;11.38;;;21.50;99.90;;;;;;4996319;27;20231;-73
2023/09/19 09:44:31;;;;;;;17.13;11.20;;;21.30;99.90;;;;;;5020365;27;20799;-74
2023/09/19 09:47:42;;;;;;;18.20;11.27;;;21.20;99.90;;;;;;5007643;27;20268;-72
2023/09/19 09:50:44;;;;;;;36.92;16.00;;;21.10;99.90;;;;;;5079147;27;20235;-71
2023/09/19 09:53:33;;;;;;;43.53;16.90;;;21.00;99.90;;;;;;5004992;28;20214;-71
2023/09/19 09:56:22;;;;;;;50.17;22.48;;;20.70;99.90;;;;;;5014115;27;20229;-69
2023/09/19 09:59:17;;;;;;;38.45;21.52;;;20.20;99.90;;;;;;5069491;28;20294;-68
2023/09/19 10:02:06;;;;;;;33.92;18.55;;;20.20;99.90;;;;;;5035590;28;20218;-73
2023/09/19 10:05:09;;;;;;;31.17;18.90;;;20.00;99.90;;;;;;5111201;27;20233;-73
2023/09/19 10:08:12;;;;;;;20.42;16.63;;;20.50;99.90;;;;;;5005891;28;20250;-69
2023/09/19 10:11:06;;;;;;;26.65;17.88;;;20.50;99.90;;;;;;5046343;27;20234;-71
2023/09/19 10:13:55;;;;;;;25.00;19.23;;;20.70;99.90;;;;;;5109296;27;20219;-70
2023/09/19 10:16:48;;;;;;;24.00;19.85;;;20.70;99.90;;;;;;5012796;27;20253;-69
2023/09/19 10:19:46;;;;;;;26.17;18.75;;;20.60;99.90;;;;;;5084387;27;20872;-71
2023/09/19 10:22:38;;;;;;;23.75;18.20;;;20.40;99.90;;;;;;5065118;27;20221;-69
2023/09/19 10:25:30;;;;;;;27.08;19.63;;;20.30;99.90;;;;;;5112282;27;20704;-69
2023/09/19 10:28:21;;;;;;;21.70;18.17;;;20.40;99.90;;;;;;5107072;27;20234;-68
2023/09/19 10:31:14;;;;;;;24.40;19.05;;;20.30;99.90;;;;;;5114046;27;20318;-69
2023/09/19 10:34:05;;;;;;;23.70;17.88;;;20.40;99.90;;;;;;5052003;27;20239;-71
2023/09/19 10:36:55;;;;;;;22.25;17.40;;;20.40;99.90;;;;;;5007276;27;20217;-69
2023/09/19 10:39:49;;;;;;;18.77;16.42;;;20.50;99.90;;;;;;5003445;28;20214;-69
2023/09/19 10:42:41;;;;;;;22.88;15.48;;;20.50;99.90;;;;;;4994224;28;20214;-69
2023/09/19 10:45:34;;;;;;;16.50;14.10;;;20.60;99.90;;;;;;4997534;28;20226;-70
2023/09/19 10:48:25;;;;;;;14.63;11.30;;;20.60;99.90;;;;;;5019103;28;20856;-69
2023/09/19 10:51:23;;;;;;;12.98;10.82;;;20.50;99.90;;;;;;5006214;28;21814;-69
2023/09/19 10:54:15;;;;;;;16.17;11.27;;;20.40;99.90;;;;;;4999137;28;20225;-68
2023/09/19 10:57:08;;;;;;;15.63;12.52;;;20.40;99.90;;;;;;5019494;28;20997;-68
2023/09/19 11:00:21;;;;;;;16.42;12.68;;;20.40;99.90;;;;;;5067162;28;20304;-70
2023/09/19 11:03:30;;;;;;;15.10;10.88;;;20.50;99.90;;;;;;5011483;28;20781;-70
2023/09/19 11:06:23;;;;;;;15.25;10.35;;;20.50;99.90;;;;;;5058336;28;20261;-70
2023/09/19 11:09:21;;;;;;;12.10;9.45;;;20.50;99.90;;;;;;5104940;27;20230;-69
2023/09/19 11:12:13;;;;;;;15.20;10.20;;;20.50;99.90;;;;;;5035319;27;20245;-69
2023/09/19 11:15:05;;;;;;;12.48;9.70;;;20.60;99.90;;;;;;5012755;27;20291;-68
2023/09/19 11:17:54;;;;;;;11.43;10.15;;;20.60;99.90;;;;;;5004016;28;20609;-69
2023/09/19 11:20:49;;;;;;;13.60;9.75;;;20.60;99.90;;;;;;5023413;28;20233;-69
2023/09/19 11:23:38;;;;;;;11.90;9.73;;;20.70;99.90;;;;;;5010840;28;20338;-71
2023/09/19 11:26:43;;;;;;;12.02;9.52;;;20.80;99.90;;;;;;5014955;28;20344;-73
2023/09/19 11:29:33;;;;;;;12.25;9.77;;;20.80;99.90;;;;;;5015894;28;20648;-71
2023/09/19 11:33:11;;;;;;;11.38;9.55;;;20.90;99.90;;;;;;5015568;28;20229;-72
2023/09/19 11:36:02;;;;;;;14.25;10.75;;;20.90;99.90;;;;;;5070242;27;20286;-72
2023/09/19 11:39:08;;;;;;;12.75;9.88;;;20.80;99.90;;;;;;5054583;27;20279;-71
2023/09/19 11:41:57;;;;;;;10.60;9.23;;;20.90;99.90;;;;;;4996214;28;20218;-73
2023/09/19 11:44:51;;;;;;;13.30;10.68;;;20.80;99.90;;;;;;5004911;28;20381;-72
2023/09/19 11:47:43;;;;;;;11.15;9.98;;;20.80;99.90;;;;;;5009200;27;20221;-73
2023/09/19 11:50:34;;;;;;;12.50;9.82;;;20.60;99.90;;;;;;5007626;28;20231;-73
2023/09/19 11:53:27;;;;;;;11.02;9.20;;;20.60;99.90;;;;;;5015736;28;20214;-72
2023/09/19 11:56:18;;;;;;;10.95;9.05;;;20.60;99.90;;;;;;5009522;28;20263;-71
2023/09/19 11:59:08;;;;;;;12.20;8.75;;;20.60;99.90;;;;;;5110454;27;20750;-72
2023/09/19 12:02:02;;;;;;;10.23;8.90;;;20.60;99.90;;;;;;5114309;27;20315;-71
2023/09/19 12:04:55;;;;;;;11.75;8.85;;;20.60;99.90;;;;;;5113540;27;20234;-71
2023/09/19 12:07:47;;;;;;;11.35;8.82;;;20.70;99.90;;;;;;5059604;27;20229;-73
2023/09/19 12:10:46;;;;;;;11.05;8.88;;;20.60;99.90;;;;;;5003109;27;20225;-73
2023/09/19 12:13:38;;;;;;;14.05;9.30;;;20.70;99.90;;;;;;5077278;27;20234;-72
2023/09/19 12:16:30;;;;;;;14.35;12.02;;;20.60;99.90;;;;;;5012414;28;20368;-70
2023/09/19 12:19:22;;;;;;;12.02;10.35;;;20.60;99.90;;;;;;5115782;27;20219;-72
2023/09/19 12:22:14;;;;;;;16.20;12.93;;;20.60;99.90;;;;;;5108101;27;20223;-72
2023/09/19 12:25:08;;;;;;;11.63;10.43;;;20.60;99.90;;;;;;5024892;28;20831;-72
2023/09/19 12:28:02;;;;;;;11.65;10.23;;;20.60;99.90;;;;;;5018888;27;20226;-72
2023/09/19 12:30:52;;;;;;;13.48;10.18;;;20.70;99.90;;;;;;5078134;27;20234;-73
2023/09/19 12:33:41;;;;;;;14.20;9.35;;;20.60;99.90;;;;;;4996786;28;20230;-71
2023/09/19 12:36:34;;;;;;;12.07;10.15;;;20.60;99.90;;;;;;4993789;28;20332;-71
2023/09/19 12:39:32;;;;;;;14.20;10.18;;;20.60;99.90;;;;;;5023653;27;20232;-70
2023/09/19 12:42:23;;;;;;;13.88;10.95;;;20.50;99.90;;;;;;5114148;27;20222;-71
2023/09/19 12:45:15;;;;;;;15.55;11.10;;;20.60;99.90;;;;;;5111634;27;20292;-71
2023/09/19 12:48:21;;;;;;;13.90;11.10;;;20.60;99.90;;;;;;5114544;27;20214;-72
2023/09/19 12:51:12;;;;;;;15.45;10.88;;;20.50;99.90;;;;;;5116086;27;20229;-71
2023/09/19 12:54:05;;;;;;;14.90;11.02;;;20.60;99.90;;;;;;5112721;27;20249;-73
2023/09/19 12:56:55;;;;;;;13.73;10.48;;;20.60;99.90;;;;;;5112423;27;20290;-69
2023/09/19 12:59:44;;;;;;;12.38;10.82;;;20.50;99.90;;;;;;5113761;27;20259;-71
2023/09/19 13:02:33;;;;;;;12.82;10.23;;;20.60;99.90;;;;;;5113831;27;20333;-71
2023/09/19 13:05:42;;;;;;;12.85;10.50;;;20.50;99.90;;;;;;5028857;27;20321;-72
2023/09/19 13:08:38;;;;;;;12.93;10.18;;;20.60;99.90;;;;;;4999497;28;20573;-73
2023/09/19 13:11:40;;;;;;;11.85;10.50;;;20.50;99.90;;;;;;5004440;28;20312;-72
2023/09/19 13:14:33;;;;;;;11.48;9.88;;;20.60;99.90;;;;;;5091750;27;20221;-72
2023/09/19 13:17:23;;;;;;;11.75;10.38;;;20.50;99.90;;;;;;5073684;27;20210;-71
2023/09/19 13:20:28;;;;;;;18.35;14.02;;;20.60;99.90;;;;;;5042149;27;20214;-71
2023/09/19 13:23:27;;;;;;;13.02;11.13;;;20.50;99.90;;;;;;5121132;27;20228;-73
2023/09/19 13:26:16;;;;;;;13.93;10.30;;;20.60;99.90;;;;;;5113552;27;20222;-71
2023/09/19 13:29:06;;;;;;;15.00;10.50;;;20.60;99.90;;;;;;5112196;27;20214;-71
2023/09/19 13:31:55;;;;;;;12.73;10.95;;;20.50;99.90;;;;;;5004276;28;20245;-71
2023/09/19 13:34:44;;;;;;;11.30;10.18;;;20.60;99.90;;;;;;5011919;28;20511;-73
2023/09/19 13:37:35;;;;;;;15.27;10.85;;;20.50;99.90;;;;;;5003372;28;20312;-73
2023/09/19 13:40:34;;;;;;;10.85;9.75;;;20.50;99.90;;;;;;5024325;27;20222;-71
2023/09/19 13:43:24;;;;;;;15.27;9.93;;;20.40;99.90;;;;;;5014980;27;20689;-71
2023/09/19 13:46:17;;;;;;;15.18;10.32;;;20.50;99.90;;;;;;5010770;28;20736;-71
2023/09/19 13:49:06;;;;;;;13.75;9.93;;;20.50;99.90;;;;;;5014457;28;20249;-72
2023/09/19 13:51:56;;;;;;;13.60;11.05;;;20.50;99.90;;;;;;5115033;27;20222;-71
2023/09/19 13:54:45;;;;;;;17.15;11.65;;;20.60;99.90;;;;;;5112657;27;20229;-71
2023/09/19 13:57:34;;;;;;;15.18;11.73;;;20.60;99.90;;;;;;5072892;27;20313;-74
2023/09/19 14:00:22;;;;;;;12.07;10.77;;;20.60;99.90;;;;;;5082324;27;20226;-73
2023/09/19 14:03:14;;;;;;;13.15;10.77;;;20.60;99.90;;;;;;5096939;28;20277;-72
2023/09/19 14:06:06;;;;;;;12.98;10.95;;;20.60;99.90;;;;;;5035172;27;20243;-72
2023/09/19 14:08:55;;;;;;;14.10;11.13;;;20.60;99.90;;;;;;5021973;28;20227;-70
2023/09/19 14:11:47;;;;;;;14.30;12.05;;;20.60;99.90;;;;;;5047209;28;20222;-73
2023/09/19 14:14:36;;;;;;;13.70;11.60;;;20.50;99.90;;;;;;5022611;27;20228;-73
2023/09/19 14:17:26;;;;;;;13.60;11.60;;;20.50;99.90;;;;;;5011566;28;20218;-73
2023/09/19 14:20:17;;;;;;;18.48;12.50;;;20.50;99.90;;;;;;5057616;28;20274;-72
2023/09/19 14:23:06;;;;;;;13.13;11.40;;;20.50;99.90;;;;;;4998626;27;20305;-71
2023/09/19 14:25:55;;;;;;;15.70;12.30;;;20.50;99.90;;;;;;5032356;27;20250;-72
2023/09/19 14:28:44;;;;;;;17.00;12.70;;;20.50;99.90;;;;;;5036295;27;20218;-72
2023/09/19 14:31:33;;;;;;;14.90;12.55;;;20.50;99.90;;;;;;5016234;27;20972;-72
2023/09/19 14:34:22;;;;;;;17.77;12.02;;;20.60;99.90;;;;;;5012555;27;20221;-73